sensor_id;sensor_type;location;lat;lon;timestamp;pressure;altitude;pressure_sealevel;temperature;humidity
5780;BME280;2916;49.798;10.022;2022-08-21T00:00:52;98345.81;;;17.88;100.00
5780;BME280;2916;49.798;10.022;2022-08-21T00:03:21;98342.50;;;17.86;100.00
5780;BME280;2916;49.798;10.022;2022-08-21T00:05:50;98341.69;;;17.85;100.00
5780;BME280;2916;49.798;10.022;2022-08-21T00:08:19;98326.41;;;17.82;100.00
5780;BME280;2916;49.798;10.022;2022-08-21T00:10:47;98332.22;;;17.86;100.00
5780;BME280;2916;49.798;10.022;2022-08-21T00:13:16;98241.56;;;17.35;100.00
5780;BME280;2916;49.798;10.022;2022-08-21T00:15:46;98322.56;;;17.74;100.00
5780;BME280;2916;49.798;10.022;2022-08-21T00:18:13;98299.69;;;17.53;100.00
5780;BME280;2916;49.798;10.022;2022-08-21T00:20:44;98329.53;;;17.72;100.00
5780;BME280;2916;49.798;10.022;2022-08-21T00:23:11;98324.38;;;17.72;100.00
5780;BME280;2916;49.798;10.022;2022-08-21T00:25:39;98327.47;;;17.62;100.00
5780;BME280;2916;49.798;10.022;2022-08-21T00:28:06;98308.28;;;17.52;100.00
5780;BME280;2916;49.798;10.022;2022-08-21T00:30:34;98310.13;;;17.50;100.00
5780;BME280;2916;49.798;10.022;2022-08-21T00:33:03;98304.31;;;17.47;100.00
5780;BME280;2916;49.798;10.022;2022-08-21T00:35:33;98318.50;;;17.54;100.00
5780;BME280;2916;49.798;10.022;2022-08-21T00:38:04;98319.50;;;17.51;100.00
5780;BME280;2916;49.798;10.022;2022-08-21T00:40:39;98324.88;;;17.47;100.00
5780;BME280;2916;49.798;10.022;2022-08-21T00:43:13;98318.41;;;17.39;100.00
5780;BME280;2916;49.798;10.022;2022-08-21T00:45:41;98303.81;;;17.24;100.00
5780;BME280;2916;49.798;10.022;2022-08-21T00:48:10;98318.22;;;17.27;100.00
5780;BME280;2916;49.798;10.022;2022-08-21T00:50:43;98311.59;;;17.23;100.00
5780;BME280;2916;49.798;10.022;2022-08-21T00:53:14;98253.69;;;16.84;100.00
5780;BME280;2916;49.798;10.022;2022-08-21T00:55:42;98288.34;;;17.08;100.00
5780;BME280;2916;49.798;10.022;2022-08-21T00:58:12;98284.88;;;17.09;100.00
5780;BME280;2916;49.798;10.022;2022-08-21T01:00:44;98309.69;;;17.26;100.00
5780;BME280;2916;49.798;10.022;2022-08-21T01:03:15;98299.81;;;17.18;100.00
5780;BME280;2916;49.798;10.022;2022-08-21T01:05:44;98277.50;;;17.03;100.00
5780;BME280;2916;49.798;10.022;2022-08-21T01:08:16;98309.44;;;17.15;100.00
5780;BME280;2916;49.798;10.022;2022-08-21T01:10:44;98310.75;;;17.06;100.00
5780;BME280;2916;49.798;10.022;2022-08-21T01:13:16;98311.56;;;17.07;100.00
5780;BME280;2916;49.798;10.022;2022-08-21T01:15:47;98313.03;;;16.95;100.00
5780;BME280;2916;49.798;10.022;2022-08-21T01:18:16;98291.88;;;16.73;100.00
5780;BME280;2916;49.798;10.022;2022-08-21T01:21:01;98314.00;;;16.92;100.00
5780;BME280;2916;49.798;10.022;2022-08-21T01:23:28;98310.09;;;16.85;100.00
5780;BME280;2916;49.798;10.022;2022-08-21T01:25:55;98294.19;;;16.79;100.00
5780;BME280;2916;49.798;10.022;2022-08-21T01:28:24;98281.50;;;16.76;100.00
5780;BME280;2916;49.798;10.022;2022-08-21T01:30:53;98300.44;;;16.90;100.00
5780;BME280;2916;49.798;10.022;2022-08-21T01:33:24;98291.28;;;16.85;100.00
5780;BME280;2916;49.798;10.022;2022-08-21T01:35:52;98318.50;;;17.05;100.00
5780;BME280;2916;49.798;10.022;2022-08-21T01:38:21;98332.16;;;17.05;100.00
5780;BME280;2916;49.798;10.022;2022-08-21T01:40:48;98319.66;;;16.99;100.00
5780;BME280;2916;49.798;10.022;2022-08-21T01:43:16;98290.59;;;16.81;100.00
5780;BME280;2916;49.798;10.022;2022-08-21T01:45:43;98308.13;;;16.90;100.00
5780;BME280;2916;49.798;10.022;2022-08-21T01:48:10;98323.88;;;17.00;100.00
5780;BME280;2916;49.798;10.022;2022-08-21T01:50:37;98320.06;;;16.91;100.00
5780;BME280;2916;49.798;10.022;2022-08-21T01:53:06;98302.56;;;16.82;100.00
5780;BME280;2916;49.798;10.022;2022-08-21T01:55:33;98272.44;;;16.51;100.00
5780;BME280;2916;49.798;10.022;2022-08-21T01:58:00;98316.47;;;16.78;100.00
5780;BME280;2916;49.798;10.022;2022-08-21T02:00:28;98232.78;;;16.24;100.00
5780;BME280;2916;49.798;10.022;2022-08-21T02:02:55;98304.75;;;16.55;100.00
5780;BME280;2916;49.798;10.022;2022-08-21T02:05:22;98317.34;;;16.60;100.00
5780;BME280;2916;49.798;10.022;2022-08-21T02:07:53;98308.03;;;16.57;100.00
5780;BME280;2916;49.798;10.022;2022-08-21T02:10:26;98245.16;;;16.15;100.00
5780;BME280;2916;49.798;10.022;2022-08-21T02:12:55;98299.59;;;16.55;100.00
5780;BME280;2916;49.798;10.022;2022-08-21T02:15:22;98299.75;;;16.52;100.00
5780;BME280;2916;49.798;10.022;2022-08-21T02:17:53;98294.78;;;16.49;100.00
5780;BME280;2916;49.798;10.022;2022-08-21T02:20:29;98287.69;;;16.37;100.00
5780;BME280;2916;49.798;10.022;2022-08-21T02:22:57;98306.91;;;16.45;100.00
5780;BME280;2916;49.798;10.022;2022-08-21T02:25:27;98288.75;;;16.33;100.00
5780;BME280;2916;49.798;10.022;2022-08-21T02:27:55;98285.22;;;16.35;100.00
5780;BME280;2916;49.798;10.022;2022-08-21T02:30:27;98300.66;;;16.34;100.00
5780;BME280;2916;49.798;10.022;2022-08-21T02:32:55;98255.22;;;16.01;100.00
5780;BME280;2916;49.798;10.022;2022-08-21T02:35:23;98278.47;;;16.15;100.00
5780;BME280;2916;49.798;10.022;2022-08-21T02:37:55;98255.31;;;16.00;100.00
5780;BME280;2916;49.798;10.022;2022-08-21T02:40:28;98291.97;;;16.19;100.00
5780;BME280;2916;49.798;10.022;2022-08-21T02:42:56;98294.84;;;16.13;100.00
5780;BME280;2916;49.798;10.022;2022-08-21T02:45:23;98286.59;;;16.06;100.00
5780;BME280;2916;49.798;10.022;2022-08-21T02:47:53;98264.13;;;15.94;100.00
5780;BME280;2916;49.798;10.022;2022-08-21T02:50:23;98283.22;;;16.06;100.00
5780;BME280;2916;49.798;10.022;2022-08-21T02:52:50;98289.63;;;16.14;100.00
5780;BME280;2916;49.798;10.022;2022-08-21T02:55:20;98273.19;;;16.01;100.00
5780;BME280;2916;49.798;10.022;2022-08-21T02:57:48;98290.22;;;16.02;100.00
5780;BME280;2916;49.798;10.022;2022-08-21T03:00:16;98284.50;;;15.97;100.00
5780;BME280;2916;49.798;10.022;2022-08-21T03:02:43;98270.16;;;15.93;100.00
5780;BME280;2916;49.798;10.022;2022-08-21T03:05:13;98283.72;;;15.95;100.00
5780;BME280;2916;49.798;10.022;2022-08-21T03:07:42;98279.31;;;15.80;100.00
5780;BME280;2916;49.798;10.022;2022-08-21T03:10:10;98272.41;;;15.82;100.00
5780;BME280;2916;49.798;10.022;2022-08-21T03:12:38;98293.44;;;15.88;100.00
5780;BME280;2916;49.798;10.022;2022-08-21T03:15:10;98285.28;;;15.80;100.00
5780;BME280;2916;49.798;10.022;2022-08-21T03:17:38;98253.75;;;15.59;100.00
5780;BME280;2916;49.798;10.022;2022-08-21T03:20:08;98284.75;;;15.74;100.00
5780;BME280;2916;49.798;10.022;2022-08-21T03:22:36;98287.00;;;15.80;100.00
5780;BME280;2916;49.798;10.022;2022-08-21T03:25:04;98277.78;;;15.76;100.00
5780;BME280;2916;49.798;10.022;2022-08-21T03:27:31;98272.00;;;15.72;100.00
5780;BME280;2916;49.798;10.022;2022-08-21T03:30:00;98280.09;;;15.82;100.00
5780;BME280;2916;49.798;10.022;2022-08-21T03:32:29;98293.22;;;15.93;100.00
5780;BME280;2916;49.798;10.022;2022-08-21T03:34:57;98292.91;;;15.82;100.00
5780;BME280;2916;49.798;10.022;2022-08-21T03:37:26;98286.25;;;15.59;100.00
5780;BME280;2916;49.798;10.022;2022-08-21T03:39:53;98280.03;;;15.64;100.00
5780;BME280;2916;49.798;10.022;2022-08-21T03:42:21;98287.56;;;15.67;100.00
5780;BME280;2916;49.798;10.022;2022-08-21T03:44:48;98282.63;;;15.63;100.00
5780;BME280;2916;49.798;10.022;2022-08-21T03:47:15;98290.63;;;15.57;100.00
5780;BME280;2916;49.798;10.022;2022-08-21T03:49:44;98286.53;;;15.53;100.00
5780;BME280;2916;49.798;10.022;2022-08-21T03:52:11;98297.06;;;15.46;100.00
5780;BME280;2916;49.798;10.022;2022-08-21T03:54:38;98272.56;;;15.41;100.00
5780;BME280;2916;49.798;10.022;2022-08-21T03:57:06;98276.56;;;15.28;100.00
5780;BME280;2916;49.798;10.022;2022-08-21T03:59:34;98285.41;;;15.39;100.00
5780;BME280;2916;49.798;10.022;2022-08-21T04:02:05;98307.72;;;15.37;100.00
5780;BME280;2916;49.798;10.022;2022-08-21T04:04:34;98263.81;;;15.07;100.00
5780;BME280;2916;49.798;10.022;2022-08-21T04:07:03;98304.00;;;15.26;100.00
5780;BME280;2916;49.798;10.022;2022-08-21T04:09:31;98260.00;;;14.97;100.00
5780;BME280;2916;49.798;10.022;2022-08-21T04:11:59;98254.03;;;14.96;100.00
5780;BME280;2916;49.798;10.022;2022-08-21T04:14:26;98320.88;;;15.30;100.00
5780;BME280;2916;49.798;10.022;2022-08-21T04:16:53;98321.25;;;15.20;100.00
5780;BME280;2916;49.798;10.022;2022-08-21T04:19:20;98324.84;;;15.16;100.00
5780;BME280;2916;49.798;10.022;2022-08-21T04:21:49;98333.94;;;15.23;100.00
5780;BME280;2916;49.798;10.022;2022-08-21T04:24:17;98313.09;;;15.12;100.00
5780;BME280;2916;49.798;10.022;2022-08-21T04:26:45;98323.00;;;15.20;100.00
5780;BME280;2916;49.798;10.022;2022-08-21T04:29:12;98333.03;;;15.25;100.00
5780;BME280;2916;49.798;10.022;2022-08-21T04:31:39;98336.38;;;15.27;100.00
5780;BME280;2916;49.798;10.022;2022-08-21T04:34:06;98342.16;;;15.11;100.00
5780;BME280;2916;49.798;10.022;2022-08-21T04:36:34;98322.47;;;14.93;100.00
5780;BME280;2916;49.798;10.022;2022-08-21T04:39:01;98340.25;;;14.96;100.00
5780;BME280;2916;49.798;10.022;2022-08-21T04:41:29;98342.69;;;14.99;100.00
5780;BME280;2916;49.798;10.022;2022-08-21T04:43:57;98337.69;;;14.96;100.00
5780;BME280;2916;49.798;10.022;2022-08-21T04:46:25;98338.59;;;14.95;100.00
5780;BME280;2916;49.798;10.022;2022-08-21T04:48:52;98308.03;;;14.71;100.00
5780;BME280;2916;49.798;10.022;2022-08-21T04:51:25;98329.50;;;14.88;100.00
5780;BME280;2916;49.798;10.022;2022-08-21T04:54:00;98334.75;;;14.85;100.00
5780;BME280;2916;49.798;10.022;2022-08-21T04:56:39;98343.97;;;14.89;100.00
5780;BME280;2916;49.798;10.022;2022-08-21T04:59:12;98358.97;;;14.98;100.00
5780;BME280;2916;49.798;10.022;2022-08-21T05:01:42;98344.63;;;14.94;100.00
5780;BME280;2916;49.798;10.022;2022-08-21T05:04:13;98325.34;;;14.85;100.00
5780;BME280;2916;49.798;10.022;2022-08-21T05:06:43;98373.59;;;15.15;100.00
5780;BME280;2916;49.798;10.022;2022-08-21T05:09:15;98366.50;;;15.21;100.00
5780;BME280;2916;49.798;10.022;2022-08-21T05:11:45;98379.38;;;15.78;100.00
5780;BME280;2916;49.798;10.022;2022-08-21T05:14:15;98375.69;;;16.39;100.00
5780;BME280;2916;49.798;10.022;2022-08-21T05:16:42;98387.63;;;17.09;100.00
5780;BME280;2916;49.798;10.022;2022-08-21T05:19:11;98369.16;;;17.52;100.00
5780;BME280;2916;49.798;10.022;2022-08-21T05:21:41;98385.00;;;17.93;99.62
5780;BME280;2916;49.798;10.022;2022-08-21T05:24:09;98394.66;;;18.51;96.60
5780;BME280;2916;49.798;10.022;2022-08-21T05:26:37;98337.03;;;18.38;93.28
5780;BME280;2916;49.798;10.022;2022-08-21T05:29:06;98390.03;;;19.17;92.29
5780;BME280;2916;49.798;10.022;2022-08-21T05:31:34;98407.34;;;19.72;89.48
5780;BME280;2916;49.798;10.022;2022-08-21T05:34:01;98391.09;;;19.98;86.85
5780;BME280;2916;49.798;10.022;2022-08-21T05:36:28;98402.06;;;20.29;85.29
5780;BME280;2916;49.798;10.022;2022-08-21T05:38:56;98408.25;;;20.80;82.64
5780;BME280;2916;49.798;10.022;2022-08-21T05:41:24;98407.22;;;21.08;81.01
5780;BME280;2916;49.798;10.022;2022-08-21T05:43:52;98405.59;;;21.07;79.16
5780;BME280;2916;49.798;10.022;2022-08-21T05:46:20;98416.97;;;21.30;78.43
5780;BME280;2916;49.798;10.022;2022-08-21T05:48:47;98416.81;;;21.83;76.37
5780;BME280;2916;49.798;10.022;2022-08-21T05:51:15;98422.78;;;21.96;75.00
5780;BME280;2916;49.798;10.022;2022-08-21T05:53:44;98421.00;;;22.22;74.52
5780;BME280;2916;49.798;10.022;2022-08-21T05:56:13;98420.44;;;22.30;74.57
5780;BME280;2916;49.798;10.022;2022-08-21T05:58:40;98415.78;;;22.70;73.20
5780;BME280;2916;49.798;10.022;2022-08-21T06:01:08;98400.94;;;22.96;72.28
5780;BME280;2916;49.798;10.022;2022-08-21T06:03:39;98411.56;;;23.38;70.92
5780;BME280;2916;49.798;10.022;2022-08-21T06:06:10;98393.22;;;22.60;71.83
5780;BME280;2916;49.798;10.022;2022-08-21T06:08:37;98408.91;;;22.34;72.43
5780;BME280;2916;49.798;10.022;2022-08-21T06:11:06;98377.91;;;22.45;72.51
5780;BME280;2916;49.798;10.022;2022-08-21T06:13:34;98408.47;;;23.11;71.38
5780;BME280;2916;49.798;10.022;2022-08-21T06:16:05;98417.25;;;23.55;69.02
5780;BME280;2916;49.798;10.022;2022-08-21T06:18:34;98408.50;;;24.00;67.28
5780;BME280;2916;49.798;10.022;2022-08-21T06:21:03;98418.38;;;24.29;65.68
5780;BME280;2916;49.798;10.022;2022-08-21T06:23:31;98407.31;;;24.48;66.19
5780;BME280;2916;49.798;10.022;2022-08-21T06:25:59;98409.06;;;24.59;64.54
5780;BME280;2916;49.798;10.022;2022-08-21T06:28:26;98412.44;;;24.70;62.98
5780;BME280;2916;49.798;10.022;2022-08-21T06:30:54;98420.53;;;25.09;62.84
5780;BME280;2916;49.798;10.022;2022-08-21T06:33:21;98415.78;;;25.45;62.49
5780;BME280;2916;49.798;10.022;2022-08-21T06:35:49;98386.91;;;25.58;61.71
5780;BME280;2916;49.798;10.022;2022-08-21T06:38:17;98411.22;;;25.68;61.40
5780;BME280;2916;49.798;10.022;2022-08-21T06:40:45;98409.56;;;24.94;60.83
5780;BME280;2916;49.798;10.022;2022-08-21T06:43:15;98392.56;;;25.63;59.61
5780;BME280;2916;49.798;10.022;2022-08-21T06:45:43;98418.31;;;25.97;58.44
5780;BME280;2916;49.798;10.022;2022-08-21T06:48:10;98420.31;;;26.33;58.26
5780;BME280;2916;49.798;10.022;2022-08-21T06:50:38;98412.03;;;26.09;56.96
5780;BME280;2916;49.798;10.022;2022-08-21T06:53:11;98421.41;;;26.60;58.20
5780;BME280;2916;49.798;10.022;2022-08-21T06:55:41;98419.19;;;26.94;56.63
5780;BME280;2916;49.798;10.022;2022-08-21T06:58:10;98394.53;;;26.59;56.09
5780;BME280;2916;49.798;10.022;2022-08-21T07:00:41;98421.81;;;27.13;55.27
5780;BME280;2916;49.798;10.022;2022-08-21T07:03:18;98419.19;;;27.13;55.07
5780;BME280;2916;49.798;10.022;2022-08-21T07:05:45;98411.88;;;25.91;55.99
5780;BME280;2916;49.798;10.022;2022-08-21T07:08:12;98424.13;;;26.87;56.52
5780;BME280;2916;49.798;10.022;2022-08-21T07:10:41;98428.22;;;27.00;56.07
5780;BME280;2916;49.798;10.022;2022-08-21T07:13:10;98425.22;;;27.04;55.26
5780;BME280;2916;49.798;10.022;2022-08-21T07:15:38;98408.66;;;25.78;56.82
5780;BME280;2916;49.798;10.022;2022-08-21T07:18:05;98423.16;;;27.55;55.55
5780;BME280;2916;49.798;10.022;2022-08-21T07:20:33;98424.56;;;27.49;54.48
5780;BME280;2916;49.798;10.022;2022-08-21T07:23:06;98414.34;;;27.75;53.29
5780;BME280;2916;49.798;10.022;2022-08-21T07:25:34;98423.91;;;28.30;53.61
5780;BME280;2916;49.798;10.022;2022-08-21T07:28:03;98411.22;;;27.89;53.90
5780;BME280;2916;49.798;10.022;2022-08-21T07:30:30;98414.91;;;27.22;54.49
5780;BME280;2916;49.798;10.022;2022-08-21T07:32:58;98422.59;;;27.61;54.04
5780;BME280;2916;49.798;10.022;2022-08-21T07:35:25;98411.75;;;27.93;53.06
5780;BME280;2916;49.798;10.022;2022-08-21T07:37:53;98425.81;;;27.82;54.52
5780;BME280;2916;49.798;10.022;2022-08-21T07:40:20;98418.16;;;27.71;54.24
5780;BME280;2916;49.798;10.022;2022-08-21T07:42:49;98408.00;;;27.68;53.38
5780;BME280;2916;49.798;10.022;2022-08-21T07:45:22;98401.81;;;28.42;52.31
5780;BME280;2916;49.798;10.022;2022-08-21T07:47:52;98378.72;;;26.03;56.57
5780;BME280;2916;49.798;10.022;2022-08-21T07:50:19;98404.66;;;26.43;56.46
5780;BME280;2916;49.798;10.022;2022-08-21T07:52:47;98389.63;;;28.51;53.14
5780;BME280;2916;49.798;10.022;2022-08-21T07:55:22;98389.66;;;27.87;53.78
5780;BME280;2916;49.798;10.022;2022-08-21T07:57:50;98398.41;;;28.85;53.31
5780;BME280;2916;49.798;10.022;2022-08-21T08:00:24;98399.25;;;29.12;51.03
5780;BME280;2916;49.798;10.022;2022-08-21T08:02:52;98386.53;;;26.90;55.89
5780;BME280;2916;49.798;10.022;2022-08-21T08:05:23;98389.97;;;28.20;54.46
5780;BME280;2916;49.798;10.022;2022-08-21T08:07:51;98396.09;;;29.34;52.64
5780;BME280;2916;49.798;10.022;2022-08-21T08:10:20;98397.63;;;29.79;51.13
5780;BME280;2916;49.798;10.022;2022-08-21T08:12:48;98399.88;;;29.32;50.70
5780;BME280;2916;49.798;10.022;2022-08-21T08:15:21;98394.03;;;29.80;51.81
5780;BME280;2916;49.798;10.022;2022-08-21T08:17:48;98380.50;;;28.55;52.05
5780;BME280;2916;49.798;10.022;2022-08-21T08:20:18;98384.19;;;27.16;55.75
5780;BME280;2916;49.798;10.022;2022-08-21T08:22:46;98378.03;;;28.71;52.01
5780;BME280;2916;49.798;10.022;2022-08-21T08:25:14;98372.75;;;27.82;53.22
5780;BME280;2916;49.798;10.022;2022-08-21T08:27:42;98370.25;;;28.08;54.81
5780;BME280;2916;49.798;10.022;2022-08-21T08:30:14;98381.41;;;29.76;51.43
5780;BME280;2916;49.798;10.022;2022-08-21T08:32:43;98389.25;;;30.59;50.01
5780;BME280;2916;49.798;10.022;2022-08-21T08:35:12;98378.31;;;29.46;51.14
5780;BME280;2916;49.798;10.022;2022-08-21T08:37:40;98377.59;;;30.29;49.97
5780;BME280;2916;49.798;10.022;2022-08-21T08:40:13;98374.81;;;30.96;49.02
5780;BME280;2916;49.798;10.022;2022-08-21T08:42:40;98360.69;;;31.05;48.57
5780;BME280;2916;49.798;10.022;2022-08-21T08:45:11;98372.53;;;31.01;49.05
5780;BME280;2916;49.798;10.022;2022-08-21T08:47:44;98355.47;;;30.89;47.63
5780;BME280;2916;49.798;10.022;2022-08-21T08:50:19;98376.75;;;29.27;49.62
5780;BME280;2916;49.798;10.022;2022-08-21T08:52:54;98369.53;;;28.51;51.34
5780;BME280;2916;49.798;10.022;2022-08-21T08:55:33;98355.03;;;29.77;50.22
5780;BME280;2916;49.798;10.022;2022-08-21T08:58:02;98376.34;;;29.91;48.34
5780;BME280;2916;49.798;10.022;2022-08-21T09:00:31;98367.19;;;28.92;50.47
5780;BME280;2916;49.798;10.022;2022-08-21T09:03:02;98362.03;;;28.74;51.67
5780;BME280;2916;49.798;10.022;2022-08-21T09:05:40;98373.25;;;29.45;50.25
5780;BME280;2916;49.798;10.022;2022-08-21T09:08:45;98343.09;;;29.32;48.26
5780;BME280;2916;49.798;10.022;2022-08-21T09:11:26;98368.38;;;28.72;50.84
5780;BME280;2916;49.798;10.022;2022-08-21T09:14:07;98367.06;;;29.96;49.75
5780;BME280;2916;49.798;10.022;2022-08-21T09:16:46;98353.28;;;27.76;52.16
5780;BME280;2916;49.798;10.022;2022-08-21T09:19:35;98355.69;;;27.32;54.73
5780;BME280;2916;49.798;10.022;2022-08-21T09:22:12;98357.47;;;29.71;52.30
5780;BME280;2916;49.798;10.022;2022-08-21T09:24:55;98352.66;;;28.90;52.08
5780;BME280;2916;49.798;10.022;2022-08-21T09:27:25;98352.34;;;28.49;51.55
5780;BME280;2916;49.798;10.022;2022-08-21T09:29:54;98352.72;;;28.80;51.70
5780;BME280;2916;49.798;10.022;2022-08-21T09:32:28;98350.97;;;29.06;50.98
5780;BME280;2916;49.798;10.022;2022-08-21T09:35:00;98347.41;;;28.28;52.43
5780;BME280;2916;49.798;10.022;2022-08-21T09:37:30;98342.97;;;28.38;51.96
5780;BME280;2916;49.798;10.022;2022-08-21T09:39:58;98305.69;;;28.00;52.54
5780;BME280;2916;49.798;10.022;2022-08-21T09:42:29;98349.19;;;28.09;52.61
5780;BME280;2916;49.798;10.022;2022-08-21T09:45:13;98354.53;;;29.40;49.03
5780;BME280;2916;49.798;10.022;2022-08-21T09:47:42;98340.00;;;28.59;49.67
5780;BME280;2916;49.798;10.022;2022-08-21T09:50:17;98348.91;;;29.52;50.57
5780;BME280;2916;49.798;10.022;2022-08-21T09:52:51;98344.34;;;30.38;47.15
5780;BME280;2916;49.798;10.022;2022-08-21T09:55:30;98316.44;;;29.88;46.35
5780;BME280;2916;49.798;10.022;2022-08-21T09:58:17;98348.44;;;30.89;47.25
5780;BME280;2916;49.798;10.022;2022-08-21T10:00:56;98347.97;;;31.41;44.76
5780;BME280;2916;49.798;10.022;2022-08-21T10:03:24;98342.09;;;29.68;47.18
5780;BME280;2916;49.798;10.022;2022-08-21T10:05:58;98343.94;;;29.75;49.72
5780;BME280;2916;49.798;10.022;2022-08-21T10:08:28;98331.50;;;30.92;43.72
5780;BME280;2916;49.798;10.022;2022-08-21T10:11:02;98339.22;;;31.49;42.00
5780;BME280;2916;49.798;10.022;2022-08-21T10:13:48;98320.88;;;29.45;44.19
5780;BME280;2916;49.798;10.022;2022-08-21T10:16:31;98333.38;;;30.50;42.76
5780;BME280;2916;49.798;10.022;2022-08-21T10:19:18;98322.31;;;29.81;43.36
5780;BME280;2916;49.798;10.022;2022-08-21T10:22:05;98330.78;;;29.25;45.47
5780;BME280;2916;49.798;10.022;2022-08-21T10:24:43;98322.97;;;29.75;44.28
5780;BME280;2916;49.798;10.022;2022-08-21T10:27:23;98314.53;;;30.39;42.01
5780;BME280;2916;49.798;10.022;2022-08-21T10:29:59;98299.94;;;30.28;41.36
5780;BME280;2916;49.798;10.022;2022-08-21T10:32:46;98317.97;;;30.47;41.67
5780;BME280;2916;49.798;10.022;2022-08-21T10:35:22;98305.94;;;30.69;41.80
5780;BME280;2916;49.798;10.022;2022-08-21T10:41:27;98314.03;;;31.23;40.22
5780;BME280;2916;49.798;10.022;2022-08-21T10:44:14;98317.25;;;31.42;40.33
5780;BME280;2916;49.798;10.022;2022-08-21T10:46:54;98310.19;;;31.73;40.62
5780;BME280;2916;49.798;10.022;2022-08-21T10:49:44;98310.28;;;31.18;38.38
5780;BME280;2916;49.798;10.022;2022-08-21T10:52:48;98305.19;;;31.64;38.54
5780;BME280;2916;49.798;10.022;2022-08-21T10:55:26;98301.84;;;30.91;40.24
5780;BME280;2916;49.798;10.022;2022-08-21T10:58:02;98244.63;;;30.70;38.83
5780;BME280;2916;49.798;10.022;2022-08-21T11:00:40;98300.69;;;29.79;40.73
5780;BME280;2916;49.798;10.022;2022-08-21T11:03:15;98294.75;;;29.61;41.09
5780;BME280;2916;49.798;10.022;2022-08-21T11:05:51;98295.78;;;29.68;41.12
5780;BME280;2916;49.798;10.022;2022-08-21T11:08:29;98282.63;;;30.99;40.87
5780;BME280;2916;49.798;10.022;2022-08-21T11:11:04;98288.03;;;29.58;39.40
5780;BME280;2916;49.798;10.022;2022-08-21T11:13:39;98289.44;;;30.12;40.01
5780;BME280;2916;49.798;10.022;2022-08-21T11:16:17;98285.31;;;29.93;40.08
5780;BME280;2916;49.798;10.022;2022-08-21T11:18:53;98271.09;;;30.20;39.55
5780;BME280;2916;49.798;10.022;2022-08-21T11:21:36;98284.53;;;29.42;40.12
5780;BME280;2916;49.798;10.022;2022-08-21T11:24:24;98283.69;;;29.92;39.94
5780;BME280;2916;49.798;10.022;2022-08-21T11:27:04;98285.97;;;30.52;39.82
5780;BME280;2916;49.798;10.022;2022-08-21T11:29:36;98278.56;;;29.74;40.85
5780;BME280;2916;49.798;10.022;2022-08-21T11:32:31;98280.75;;;30.44;40.44
5780;BME280;2916;49.798;10.022;2022-08-21T11:35:15;98278.13;;;30.44;40.60
5780;BME280;2916;49.798;10.022;2022-08-21T11:37:55;98268.59;;;29.94;39.80
5780;BME280;2916;49.798;10.022;2022-08-21T11:40:45;98264.03;;;29.88;40.00
5780;BME280;2916;49.798;10.022;2022-08-21T11:43:34;98280.75;;;30.44;39.28
5780;BME280;2916;49.798;10.022;2022-08-21T11:46:28;98274.53;;;30.20;39.46
5780;BME280;2916;49.798;10.022;2022-08-21T11:49:14;98276.69;;;30.97;40.59
5780;BME280;2916;49.798;10.022;2022-08-21T11:51:52;98280.53;;;31.25;39.03
5780;BME280;2916;49.798;10.022;2022-08-21T11:54:26;98266.25;;;31.28;38.24
5780;BME280;2916;49.798;10.022;2022-08-21T11:57:02;98261.44;;;31.40;38.15
5780;BME280;2916;49.798;10.022;2022-08-21T11:59:39;98260.44;;;31.49;38.74
5780;BME280;2916;49.798;10.022;2022-08-21T12:02:14;98262.16;;;31.34;38.84
5780;BME280;2916;49.798;10.022;2022-08-21T12:04:47;98261.34;;;30.86;38.55
5780;BME280;2916;49.798;10.022;2022-08-21T12:07:29;98263.75;;;30.95;38.50
5780;BME280;2916;49.798;10.022;2022-08-21T12:09:58;98265.94;;;30.84;39.36
5780;BME280;2916;49.798;10.022;2022-08-21T12:12:29;98252.34;;;31.19;38.70
5780;BME280;2916;49.798;10.022;2022-08-21T12:15:27;98256.91;;;31.25;37.82
5780;BME280;2916;49.798;10.022;2022-08-21T12:18:00;98251.97;;;31.31;37.94
5780;BME280;2916;49.798;10.022;2022-08-21T12:20:44;98258.06;;;30.84;38.13
5780;BME280;2916;49.798;10.022;2022-08-21T12:23:27;98250.41;;;30.49;40.05
5780;BME280;2916;49.798;10.022;2022-08-21T12:26:13;98242.06;;;30.05;38.88
5780;BME280;2916;49.798;10.022;2022-08-21T12:28:44;98243.66;;;30.63;40.06
5780;BME280;2916;49.798;10.022;2022-08-21T12:31:24;98239.78;;;29.86;38.99
5780;BME280;2916;49.798;10.022;2022-08-21T12:33:58;98210.69;;;29.22;40.80
5780;BME280;2916;49.798;10.022;2022-08-21T12:36:44;98249.34;;;29.36;40.92
5780;BME280;2916;49.798;10.022;2022-08-21T12:39:19;98217.72;;;28.27;40.28
5780;BME280;2916;49.798;10.022;2022-08-21T12:41:54;98241.25;;;29.13;40.41
5780;BME280;2916;49.798;10.022;2022-08-21T12:44:30;98237.72;;;29.39;38.82
5780;BME280;2916;49.798;10.022;2022-08-21T12:47:06;98240.47;;;29.29;38.92
5780;BME280;2916;49.798;10.022;2022-08-21T12:49:37;98233.53;;;29.62;38.88
5780;BME280;2916;49.798;10.022;2022-08-21T12:52:16;98233.06;;;29.75;38.51
5780;BME280;2916;49.798;10.022;2022-08-21T12:54:46;98216.19;;;29.94;38.59
5780;BME280;2916;49.798;10.022;2022-08-21T12:57:23;98236.47;;;30.49;38.41
5780;BME280;2916;49.798;10.022;2022-08-21T12:59:53;98229.16;;;30.28;36.66
5780;BME280;2916;49.798;10.022;2022-08-21T13:02:25;98230.34;;;30.73;37.39
5780;BME280;2916;49.798;10.022;2022-08-21T13:04:54;98217.16;;;30.33;37.90
5780;BME280;2916;49.798;10.022;2022-08-21T13:07:28;98228.47;;;30.42;38.00
5780;BME280;2916;49.798;10.022;2022-08-21T13:10:03;98227.97;;;30.47;36.83
5780;BME280;2916;49.798;10.022;2022-08-21T13:12:32;98221.13;;;29.80;37.50
5780;BME280;2916;49.798;10.022;2022-08-21T13:15:04;98216.03;;;29.71;38.87
5780;BME280;2916;49.798;10.022;2022-08-21T13:17:38;98216.38;;;30.25;37.17
5780;BME280;2916;49.798;10.022;2022-08-21T13:20:17;98207.94;;;29.40;36.91
5780;BME280;2916;49.798;10.022;2022-08-21T13:22:45;98213.56;;;30.02;37.18
5780;BME280;2916;49.798;10.022;2022-08-21T13:25:14;98212.75;;;29.85;36.52
5780;BME280;2916;49.798;10.022;2022-08-21T13:27:44;98207.69;;;30.16;37.56
5780;BME280;2916;49.798;10.022;2022-08-21T13:30:20;98210.59;;;30.38;36.70
5780;BME280;2916;49.798;10.022;2022-08-21T13:32:54;98214.69;;;30.48;36.87
5780;BME280;2916;49.798;10.022;2022-08-21T13:35:26;98212.41;;;30.37;36.67